createdAt,value
2022-11-26T00:00:48.069Z,998.00
2022-11-26T00:01:48.072Z,997.97
2022-11-26T00:02:48.110Z,997.97
2022-11-26T00:03:48.022Z,998.03
2022-11-26T00:04:48.014Z,998.01
2022-11-26T00:05:48.002Z,998.00
2022-11-26T00:06:48.011Z,998.05
2022-11-26T00:07:48.039Z,998.07
2022-11-26T00:08:47.981Z,998.06
2022-11-26T00:09:47.987Z,998.11
2022-11-26T00:10:47.955Z,998.10
2022-11-26T00:11:47.943Z,998.06
2022-11-26T00:12:47.932Z,998.11
2022-11-26T00:13:47.921Z,998.10
2022-11-26T00:14:47.948Z,998.06
2022-11-26T00:15:47.902Z,998.15
2022-11-26T00:16:48.024Z,998.11
2022-11-26T00:17:48.247Z,998.18
2022-11-26T00:18:47.908Z,998.15
2022-11-26T00:19:47.885Z,998.20
2022-11-26T00:20:47.874Z,998.17
2022-11-26T00:21:47.849Z,998.16
2022-11-26T00:22:47.848Z,998.15
2022-11-26T00:23:47.867Z,998.16
2022-11-26T00:24:47.829Z,998.17
2022-11-26T00:25:47.815Z,998.18
2022-11-26T00:26:47.806Z,998.22
2022-11-26T00:27:47.800Z,998.19
2022-11-26T00:28:47.836Z,998.22
2022-11-26T00:29:47.776Z,998.21
2022-11-26T00:30:47.764Z,998.21
2022-11-26T00:31:47.858Z,998.14
2022-11-26T00:32:47.762Z,998.21
2022-11-26T00:33:47.752Z,998.21
2022-11-26T00:34:47.717Z,998.16
2022-11-26T00:35:47.708Z,998.20
2022-11-26T00:36:47.728Z,998.28
2022-11-26T00:37:47.704Z,998.28
2022-11-26T00:38:47.736Z,998.35
2022-11-26T00:39:47.674Z,998.35
2022-11-26T00:40:47.667Z,998.32
2022-11-26T00:41:47.679Z,998.35
2022-11-26T00:42:47.650Z,998.40
2022-11-26T00:43:47.619Z,998.34
2022-11-26T00:44:47.624Z,998.38
2022-11-26T00:45:47.739Z,998.31
2022-11-26T00:46:47.624Z,998.35
2022-11-26T00:47:47.597Z,998.27
2022-11-26T00:48:47.589Z,998.36
2022-11-26T00:49:47.575Z,998.34
2022-11-26T00:50:47.586Z,998.37
2022-11-26T00:51:47.597Z,998.34
2022-11-26T00:52:47.575Z,998.34
2022-11-26T00:53:47.551Z,998.38
2022-11-26T00:54:47.527Z,998.40
2022-11-26T00:55:47.522Z,998.39
2022-11-26T00:56:47.522Z,998.44
2022-11-26T00:57:47.566Z,998.39
2022-11-26T00:58:47.493Z,998.47
2022-11-26T00:59:47.485Z,998.49
2022-11-26T01:00:47.511Z,998.44
2022-11-26T01:01:47.540Z,998.47
2022-11-26T01:02:47.465Z,998.47
2022-11-26T01:03:47.455Z,998.49
2022-11-26T01:04:47.450Z,998.52
2022-11-26T01:05:47.424Z,998.51
2022-11-26T01:06:47.444Z,998.60
2022-11-26T01:07:47.516Z,998.54
2022-11-26T01:08:47.402Z,998.60
2022-11-26T01:09:47.401Z,998.60
2022-11-26T01:10:47.376Z,998.62
2022-11-26T01:11:52.381Z,998.65
2022-11-26T01:12:49.357Z,998.67
2022-11-26T01:13:47.367Z,998.69
2022-11-26T01:14:47.348Z,998.68
2022-11-26T01:15:47.355Z,998.63
2022-11-26T01:16:47.422Z,998.71
2022-11-26T01:17:47.320Z,998.68
2022-11-26T01:18:47.328Z,998.71
2022-11-26T01:19:47.301Z,998.69
2022-11-26T01:20:47.286Z,998.72
2022-11-26T01:21:47.344Z,998.67
2022-11-26T01:22:47.263Z,998.73
2022-11-26T01:23:47.316Z,998.72
2022-11-26T01:24:48.245Z,998.75
2022-11-26T01:25:47.248Z,998.82
2022-11-26T01:26:47.236Z,998.78
2022-11-26T01:27:47.246Z,998.72
2022-11-26T01:28:47.218Z,998.83
2022-11-26T01:29:47.227Z,998.78
2022-11-26T01:30:47.207Z,998.87
2022-11-26T01:31:47.351Z,998.85
2022-11-26T01:32:47.197Z,998.87
2022-11-26T01:33:47.182Z,998.91
2022-11-26T01:34:47.153Z,998.94
2022-11-26T01:35:47.141Z,999.01
2022-11-26T01:36:47.142Z,998.98
2022-11-26T01:37:47.153Z,998.96
2022-11-26T01:38:47.123Z,999.03
2022-11-26T01:39:47.105Z,998.98
2022-11-26T01:40:47.108Z,998.91
2022-11-26T01:41:47.087Z,998.92
2022-11-26T01:42:47.104Z,998.96
2022-11-26T01:43:47.075Z,998.95
2022-11-26T01:44:47.069Z,998.94
2022-11-26T01:45:47.117Z,998.97
2022-11-26T01:46:47.050Z,999.01
2022-11-26T01:47:47.034Z,998.96
2022-11-26T01:48:47.097Z,999.05
2022-11-26T01:49:47.009Z,999.02
2022-11-26T01:50:47.004Z,999.04
2022-11-26T01:51:46.989Z,999.05
2022-11-26T01:52:46.987Z,999.10
2022-11-26T01:53:47.020Z,999.10
2022-11-26T01:54:46.962Z,999.11
2022-11-26T01:55:46.965Z,999.10
2022-11-26T01:56:46.950Z,999.19
2022-11-26T01:57:46.928Z,999.16
2022-11-26T01:58:46.916Z,999.18
2022-11-26T01:59:46.940Z,999.16
2022-11-26T02:00:46.968Z,999.14
2022-11-26T02:01:46.935Z,999.16
2022-11-26T02:02:47.002Z,999.13
2022-11-26T02:03:46.895Z,999.09
2022-11-26T02:04:46.876Z,999.14
2022-11-26T02:05:46.856Z,999.09
2022-11-26T02:06:46.844Z,999.15
2022-11-26T02:07:46.916Z,999.15
2022-11-26T02:08:46.894Z,999.16
2022-11-26T02:09:46.825Z,999.11
2022-11-26T02:10:46.811Z,999.17
2022-11-26T02:11:46.813Z,999.12
2022-11-26T02:12:46.802Z,999.18
2022-11-26T02:13:46.784Z,999.16
2022-11-26T02:14:46.805Z,999.17
2022-11-26T02:15:46.780Z,999.17
2022-11-26T02:16:46.821Z,999.22
2022-11-26T02:17:46.751Z,999.22
2022-11-26T02:18:46.750Z,999.21
2022-11-26T02:19:46.722Z,999.28
2022-11-26T02:20:46.722Z,999.28
2022-11-26T02:21:46.715Z,999.24
2022-11-26T02:22:46.705Z,999.27
2022-11-26T02:23:46.722Z,999.31
2022-11-26T02:24:46.678Z,999.28
2022-11-26T02:25:46.724Z,999.19
2022-11-26T02:26:46.691Z,999.31
2022-11-26T02:27:46.694Z,999.33
2022-11-26T02:28:46.651Z,999.39
2022-11-26T02:29:46.673Z,999.37
2022-11-26T02:30:46.613Z,999.37
2022-11-26T02:31:46.682Z,999.41
2022-11-26T02:32:46.594Z,999.44
2022-11-26T02:33:46.626Z,999.43
2022-11-26T02:34:46.575Z,999.42
2022-11-26T02:35:46.561Z,999.46
2022-11-26T02:36:46.578Z,999.46
2022-11-26T02:37:46.584Z,999.46
2022-11-26T02:38:46.550Z,999.51
2022-11-26T02:39:46.539Z,999.48
2022-11-26T02:40:46.515Z,999.54
2022-11-26T02:41:46.508Z,999.55
2022-11-26T02:42:46.505Z,999.67
2022-11-26T02:43:46.510Z,999.55
2022-11-26T02:44:46.496Z,999.60
2022-11-26T02:45:47.519Z,999.64
2022-11-26T02:46:46.460Z,999.61
2022-11-26T02:47:46.465Z,999.64
2022-11-26T02:48:46.444Z,999.68
2022-11-26T02:49:46.453Z,999.67
2022-11-26T02:50:46.426Z,999.65
2022-11-26T02:51:46.410Z,999.79
2022-11-26T02:52:46.398Z,999.72
2022-11-26T02:53:46.393Z,999.77
2022-11-26T02:54:46.394Z,999.79
2022-11-26T02:55:46.401Z,999.85
2022-11-26T02:56:46.360Z,999.84
2022-11-26T02:57:46.352Z,999.88
2022-11-26T02:58:46.340Z,999.85
2022-11-26T02:59:46.330Z,999.93
2022-11-26T03:00:46.403Z,999.85
2022-11-26T03:01:46.312Z,999.89
2022-11-26T03:02:46.302Z,999.93
2022-11-26T03:03:46.348Z,999.87
2022-11-26T03:04:46.296Z,999.96
2022-11-26T03:05:46.291Z,999.93
2022-11-26T03:06:46.268Z,999.99
2022-11-26T03:07:46.328Z,999.95
2022-11-26T03:08:46.247Z,1000.02
2022-11-26T03:09:46.293Z,1000.00
2022-11-26T03:10:46.220Z,1000.01
2022-11-26T03:11:46.306Z,1000.08
2022-11-26T03:12:46.222Z,1000.08
2022-11-26T03:13:46.203Z,1000.09
2022-11-26T03:16:13.804Z,1000.07
2022-11-26T03:17:13.744Z,1000.10
2022-11-26T03:18:14.845Z,1000.13
2022-11-26T03:19:14.855Z,1000.12
2022-11-26T03:20:14.835Z,1000.08
2022-11-26T03:21:14.815Z,1000.07
2022-11-26T03:22:14.825Z,1000.10
2022-11-26T03:23:14.795Z,1000.08
2022-11-26T03:24:14.791Z,1000.15
2022-11-26T03:25:14.778Z,1000.17
2022-11-26T03:26:14.782Z,1000.15
2022-11-26T03:27:14.769Z,1000.19
2022-11-26T03:28:14.753Z,1000.17
2022-11-26T03:29:14.735Z,1000.21
2022-11-26T03:30:14.737Z,1000.20
2022-11-26T03:31:14.754Z,1000.25
2022-11-26T03:32:14.744Z,1000.19
2022-11-26T03:33:14.694Z,1000.22
2022-11-26T03:34:14.686Z,1000.17
2022-11-26T03:35:14.678Z,1000.27
2022-11-26T03:36:14.670Z,1000.18
2022-11-26T03:37:14.681Z,1000.25
2022-11-26T03:38:14.646Z,1000.25
2022-11-26T03:39:14.642Z,1000.26
2022-11-26T03:40:14.633Z,1000.28
2022-11-26T03:41:14.615Z,1000.27
2022-11-26T03:42:14.621Z,1000.23
2022-11-26T03:43:14.595Z,1000.24
2022-11-26T03:44:14.603Z,1000.28
2022-11-26T03:45:14.576Z,1000.27
2022-11-26T03:46:14.602Z,1000.32
2022-11-26T03:47:14.581Z,1000.35
2022-11-26T03:48:14.534Z,1000.29
2022-11-26T03:49:14.543Z,1000.30
2022-11-26T03:50:14.532Z,1000.31
2022-11-26T03:51:14.511Z,1000.31
2022-11-26T03:52:14.525Z,1000.30
2022-11-26T03:53:14.498Z,1000.30
2022-11-26T03:54:14.503Z,1000.38
2022-11-26T03:55:14.473Z,1000.39
2022-11-26T03:56:14.463Z,1000.39
2022-11-26T03:57:14.454Z,1000.45
2022-11-26T03:58:14.451Z,1000.39
2022-11-26T03:59:14.455Z,1000.40
2022-11-26T04:00:14.420Z,1000.40
2022-11-26T04:01:14.491Z,1000.42
2022-11-26T04:02:14.413Z,1000.48
2022-11-26T04:03:14.420Z,1000.44
2022-11-26T04:04:14.407Z,1000.43
2022-11-26T04:05:14.379Z,1000.46
2022-11-26T04:06:14.361Z,1000.47
2022-11-26T04:07:14.451Z,1000.47
2022-11-26T04:08:14.351Z,1000.57
2022-11-26T04:09:14.357Z,1000.50
2022-11-26T04:10:14.326Z,1000.54
2022-11-26T04:11:14.329Z,1000.55
2022-11-26T04:12:14.303Z,1000.54
2022-11-26T04:13:14.314Z,1000.55
2022-11-26T04:14:14.289Z,1000.56
2022-11-26T04:15:14.285Z,1000.55
2022-11-26T04:16:14.284Z,1000.64
2022-11-26T04:17:15.278Z,1000.57
2022-11-26T04:18:14.254Z,1000.59
2022-11-26T04:19:14.236Z,1000.58
2022-11-26T04:20:14.258Z,1000.59
2022-11-26T04:21:14.223Z,1000.58
2022-11-26T04:22:14.211Z,1000.58
2022-11-26T04:23:14.217Z,1000.62
2022-11-26T04:24:14.213Z,1000.61
2022-11-26T04:25:14.184Z,1000.59
2022-11-26T04:26:14.177Z,1000.65
2022-11-26T04:27:14.165Z,1000.63
2022-11-26T04:28:14.154Z,1000.67
2022-11-26T04:29:14.171Z,1000.59
2022-11-26T04:30:14.127Z,1000.63
2022-11-26T04:31:14.184Z,1000.69
2022-11-26T04:32:14.118Z,1000.63
2022-11-26T04:33:14.134Z,1000.71
2022-11-26T04:34:14.094Z,1000.61
2022-11-26T04:35:14.084Z,1000.61
2022-11-26T04:36:14.075Z,1000.61
2022-11-26T04:37:14.064Z,1000.69
2022-11-26T04:38:14.075Z,1000.71
2022-11-26T04:39:14.048Z,1000.67
2022-11-26T04:40:14.052Z,1000.66
2022-11-26T04:41:14.036Z,1000.60
2022-11-26T04:42:14.025Z,1000.64
2022-11-26T04:43:14.029Z,1000.65
2022-11-26T04:44:14.010Z,1000.65
2022-11-26T04:45:14.004Z,1000.65
2022-11-26T04:46:14.018Z,1000.68
2022-11-26T04:47:13.986Z,1000.73
2022-11-26T04:48:13.960Z,1000.70
2022-11-26T04:49:13.976Z,1000.76
2022-11-26T04:50:13.967Z,1000.79
2022-11-26T04:51:13.925Z,1000.75
2022-11-26T04:52:13.919Z,1000.74
2022-11-26T04:53:13.906Z,1000.65
2022-11-26T04:54:13.896Z,1000.65
2022-11-26T04:55:13.912Z,1000.75
2022-11-26T04:56:13.896Z,1000.78
2022-11-26T04:57:13.900Z,1000.72
2022-11-26T04:58:13.858Z,1000.73
2022-11-26T04:59:13.881Z,1000.75
2022-11-26T05:00:13.838Z,1000.78
2022-11-26T05:01:13.863Z,1000.69
2022-11-26T05:02:13.896Z,1000.72
2022-11-26T05:03:13.808Z,1000.79
2022-11-26T05:04:13.810Z,1000.82
2022-11-26T05:05:13.797Z,1000.80
2022-11-26T05:06:13.790Z,1000.84
2022-11-26T05:07:13.814Z,1000.76
2022-11-26T05:08:13.762Z,1000.82
2022-11-26T05:09:13.847Z,1000.85
2022-11-26T05:10:13.772Z,1000.79
2022-11-26T05:11:13.741Z,1000.82
2022-11-26T05:12:13.748Z,1000.83
2022-11-26T05:13:14.307Z,1000.85
2022-11-26T05:14:13.706Z,1000.84
2022-11-26T05:15:13.707Z,1000.90
2022-11-26T05:16:13.738Z,1000.87
2022-11-26T05:17:13.678Z,1000.91
2022-11-26T05:18:13.703Z,1000.97
2022-11-26T05:19:13.655Z,1000.94
2022-11-26T05:20:13.660Z,1000.99
2022-11-26T05:21:13.629Z,1001.05
2022-11-26T05:22:13.629Z,1001.00
2022-11-26T05:23:13.632Z,1001.01
2022-11-26T05:24:13.617Z,1001.01
2022-11-26T05:25:13.630Z,1001.01
2022-11-26T05:26:13.584Z,1001.00
2022-11-26T05:27:13.581Z,1001.00
2022-11-26T05:28:13.603Z,1000.92
2022-11-26T05:29:13.565Z,1000.98
2022-11-26T05:30:13.543Z,1000.95
2022-11-26T05:31:13.643Z,1001.01
2022-11-26T05:32:13.524Z,1000.97
2022-11-26T05:33:13.543Z,1001.01
2022-11-26T05:34:13.512Z,1000.96
2022-11-26T05:35:13.506Z,1000.98
2022-11-26T05:36:13.519Z,1000.98
2022-11-26T05:37:13.472Z,1000.97
2022-11-26T05:38:13.477Z,1001.01
2022-11-26T05:39:13.460Z,1001.00
2022-11-26T05:40:13.454Z,1000.99
2022-11-26T05:41:13.462Z,1001.04
2022-11-26T05:42:13.429Z,1001.04
2022-11-26T05:43:13.423Z,1001.03
2022-11-26T05:44:13.459Z,1001.03
2022-11-26T05:45:13.412Z,1001.04
2022-11-26T05:46:13.442Z,1001.08
2022-11-26T05:47:13.391Z,1001.04
2022-11-26T05:48:13.378Z,1001.09
2022-11-26T05:49:13.388Z,1001.08
2022-11-26T05:50:13.351Z,1001.09
2022-11-26T05:51:13.342Z,1001.09
2022-11-26T05:52:13.340Z,1001.17
2022-11-26T05:53:13.313Z,1001.09
2022-11-26T05:54:13.302Z,1001.18
2022-11-26T05:55:13.310Z,1001.15
2022-11-26T05:56:13.290Z,1001.14
2022-11-26T05:57:13.285Z,1001.17
2022-11-26T05:58:13.270Z,1001.27
2022-11-26T05:59:13.261Z,1001.27
2022-11-26T06:00:13.263Z,1001.27
2022-11-26T06:01:13.241Z,1001.31
2022-11-26T06:02:13.354Z,1001.32
2022-11-26T06:03:17.059Z,1001.31
2022-11-26T06:04:14.214Z,1001.33
2022-11-26T06:05:13.202Z,1001.34
2022-11-26T06:06:13.198Z,1001.36
2022-11-26T06:07:13.225Z,1001.42
2022-11-26T06:08:13.194Z,1001.43
2022-11-26T06:09:13.158Z,1001.46
2022-11-26T06:10:13.190Z,1001.45
2022-11-26T06:11:13.131Z,1001.48
2022-11-26T06:12:14.133Z,1001.48
2022-11-26T06:13:13.118Z,1001.44
2022-11-26T06:14:13.120Z,1001.41
2022-11-26T06:15:13.097Z,1001.46
2022-11-26T06:16:13.160Z,1001.51
2022-11-26T06:17:13.103Z,1001.54
2022-11-26T06:18:13.067Z,1001.49
2022-11-26T06:19:13.068Z,1001.52
2022-11-26T06:20:13.059Z,1001.53
2022-11-26T06:21:13.036Z,1001.62
2022-11-26T06:22:13.039Z,1001.63
2022-11-26T06:23:13.024Z,1001.61
2022-11-26T06:24:13.011Z,1001.65
2022-11-26T06:25:13.026Z,1001.62
2022-11-26T06:26:12.985Z,1001.63
2022-11-26T06:27:12.984Z,1001.65
2022-11-26T06:28:12.984Z,1001.68
2022-11-26T06:29:12.973Z,1001.70
2022-11-26T06:30:12.968Z,1001.68
2022-11-26T06:31:13.016Z,1001.70
2022-11-26T06:32:12.933Z,1001.73
2022-11-26T06:33:12.929Z,1001.79
2022-11-26T06:34:12.914Z,1001.78
2022-11-26T06:35:12.903Z,1001.78
2022-11-26T06:36:12.914Z,1001.83
2022-11-26T06:37:12.884Z,1001.86
2022-11-26T06:38:12.877Z,1001.86
2022-11-26T06:39:12.897Z,1001.89
2022-11-26T06:40:12.865Z,1001.89
2022-11-26T06:41:12.850Z,1001.94
2022-11-26T06:42:12.839Z,1001.93
2022-11-26T06:43:12.819Z,1001.98
2022-11-26T06:44:12.828Z,1002.01
2022-11-26T06:45:12.806Z,1001.97
2022-11-26T06:46:12.875Z,1002.01
2022-11-26T06:47:12.795Z,1002.01
2022-11-26T06:48:12.779Z,1002.00
2022-11-26T06:49:12.825Z,1002.05
2022-11-26T06:50:12.749Z,1002.09
2022-11-26T06:51:12.757Z,1002.11
2022-11-26T06:52:12.733Z,1002.09
2022-11-26T06:53:12.727Z,1002.12
2022-11-26T06:54:12.733Z,1002.12
2022-11-26T06:55:12.711Z,1002.14
2022-11-26T06:56:18.037Z,1002.07
2022-11-26T06:57:14.686Z,1002.09
2022-11-26T06:58:12.681Z,1002.09
2022-11-26T06:59:12.671Z,1002.19
2022-11-26T07:00:12.657Z,1002.14
2022-11-26T07:01:12.703Z,1002.09
2022-11-26T07:02:12.684Z,1002.13
2022-11-26T07:03:12.633Z,1002.13
2022-11-26T07:04:12.639Z,1002.13
2022-11-26T07:05:12.615Z,1002.17
2022-11-26T07:06:12.595Z,1002.24
2022-11-26T07:07:12.641Z,1002.14
2022-11-26T07:08:12.580Z,1002.23
2022-11-26T07:09:12.584Z,1002.26
2022-11-26T07:10:12.564Z,1002.27
2022-11-26T07:11:12.559Z,1002.27
2022-11-26T07:12:12.539Z,1002.32
2022-11-26T07:13:12.540Z,1002.34
2022-11-26T07:14:12.548Z,1002.35
2022-11-26T07:15:12.522Z,1002.36
2022-11-26T07:16:12.567Z,1002.36
2022-11-26T07:17:12.482Z,1002.40
2022-11-26T07:18:12.492Z,1002.43
2022-11-26T07:19:12.516Z,1002.42
2022-11-26T07:20:12.471Z,1002.45
2022-11-26T07:21:12.460Z,1002.44
2022-11-26T07:22:12.472Z,1002.45
2022-11-26T07:23:12.444Z,1002.41
2022-11-26T07:24:12.428Z,1002.52
2022-11-26T07:25:13.032Z,1002.49
2022-11-26T07:26:13.400Z,1002.55
2022-11-26T07:27:12.399Z,1002.54
2022-11-26T07:28:12.383Z,1002.55
2022-11-26T07:29:12.371Z,1002.55
2022-11-26T07:30:12.374Z,1002.57
2022-11-26T07:31:16.580Z,1002.58
2022-11-26T07:32:12.337Z,1002.61
2022-11-26T07:33:12.326Z,1002.61
2022-11-26T07:34:12.348Z,1002.59
2022-11-26T07:35:12.319Z,1002.66
2022-11-26T07:36:12.303Z,1002.68
2022-11-26T07:37:12.292Z,1002.60
2022-11-26T07:38:12.286Z,1002.62
2022-11-26T07:39:12.288Z,1002.65
2022-11-26T07:40:12.266Z,1002.78
2022-11-26T07:41:12.253Z,1002.77
2022-11-26T07:42:12.262Z,1002.76
2022-11-26T07:43:12.230Z,1002.77
2022-11-26T07:44:12.243Z,1002.75
2022-11-26T07:45:12.232Z,1002.86
2022-11-26T07:46:12.276Z,1002.84
2022-11-26T07:47:12.196Z,1002.85
2022-11-26T07:48:16.711Z,1002.86
2022-11-26T07:49:13.173Z,1002.88
2022-11-26T07:50:12.173Z,1002.90
2022-11-26T07:51:13.163Z,1002.93
2022-11-26T07:52:12.141Z,1002.97
2022-11-26T07:53:12.140Z,1002.96
2022-11-26T07:54:12.144Z,1002.99
2022-11-26T07:55:12.723Z,1002.97
2022-11-26T07:56:13.113Z,1003.03
2022-11-26T07:57:12.119Z,1003.06
2022-11-26T07:58:12.089Z,1003.00
2022-11-26T07:59:12.080Z,1003.11
2022-11-26T08:00:12.079Z,1003.06
2022-11-26T08:01:12.213Z,1003.10
2022-11-26T08:02:12.051Z,1003.12
2022-11-26T08:03:12.044Z,1003.13
2022-11-26T08:04:12.022Z,1003.20
2022-11-26T08:05:12.036Z,1003.20
2022-11-26T08:06:12.073Z,1003.19
2022-11-26T08:07:16.083Z,1003.23
2022-11-26T08:08:13.114Z,1003.26
2022-11-26T08:09:11.985Z,1003.22
2022-11-26T08:10:11.986Z,1003.20
2022-11-26T08:11:11.958Z,1003.21
2022-11-26T08:12:11.953Z,1003.20
2022-11-26T08:13:11.939Z,1003.24
2022-11-26T08:14:11.952Z,1003.17
2022-11-26T08:15:11.920Z,1003.20
2022-11-26T08:16:11.936Z,1003.21
2022-11-26T08:17:11.923Z,1003.22
2022-11-26T08:18:11.888Z,1003.23
2022-11-26T08:19:11.884Z,1003.23
2022-11-26T08:20:11.903Z,1003.21
2022-11-26T08:21:11.865Z,1003.23
2022-11-26T08:22:11.842Z,1003.22
2022-11-26T08:23:11.837Z,1003.28
2022-11-26T08:24:11.837Z,1003.29
2022-11-26T08:25:11.845Z,1003.27
2022-11-26T08:27:13.822Z,1003.29
2022-11-26T08:28:11.788Z,1003.32
2022-11-26T08:29:11.803Z,1003.29
2022-11-26T08:30:11.797Z,1003.33
2022-11-26T08:31:11.800Z,1003.36
2022-11-26T08:32:11.762Z,1003.46
2022-11-26T08:33:11.742Z,1003.42
2022-11-26T08:34:11.742Z,1003.45
2022-11-26T08:35:11.746Z,1003.42
2022-11-26T08:36:11.742Z,1003.51
2022-11-26T08:37:11.713Z,1003.49
2022-11-26T08:38:11.693Z,1003.42
2022-11-26T08:39:11.693Z,1003.37
2022-11-26T08:40:13.928Z,1003.38
2022-11-26T08:41:12.690Z,1003.47
2022-11-26T08:42:11.669Z,1003.43
2022-11-26T08:43:11.652Z,1003.37
2022-11-26T08:44:11.676Z,1003.38
2022-11-26T08:45:11.630Z,1003.37
2022-11-26T08:46:11.708Z,1003.38
2022-11-26T08:47:11.641Z,1003.43
2022-11-26T08:48:11.592Z,1003.39
2022-11-26T08:49:11.585Z,1003.40
2022-11-26T08:50:11.576Z,1003.38
2022-11-26T08:51:11.565Z,1003.42
2022-11-26T08:52:11.578Z,1003.36
2022-11-26T08:53:11.549Z,1003.43
2022-11-26T08:54:11.542Z,1003.46
2022-11-26T08:55:11.518Z,1003.44
2022-11-26T08:56:12.519Z,1003.44
2022-11-26T08:57:11.529Z,1003.46
2022-11-26T08:58:11.521Z,1003.37
2022-11-26T08:59:11.504Z,1003.44
2022-11-26T09:00:11.484Z,1003.38
2022-11-26T09:01:11.519Z,1003.38
2022-11-26T09:02:14.802Z,1003.33
2022-11-26T09:03:13.517Z,1003.31
2022-11-26T09:04:11.432Z,1003.35
2022-11-26T09:05:11.427Z,1003.30
2022-11-26T09:06:11.411Z,1003.35
2022-11-26T09:07:11.482Z,1003.29
2022-11-26T09:08:11.399Z,1003.29
2022-11-26T09:09:11.397Z,1003.28
2022-11-26T09:10:11.392Z,1003.30
2022-11-26T09:11:11.363Z,1003.30
2022-11-26T09:12:11.364Z,1003.25
2022-11-26T09:13:11.353Z,1003.26
2022-11-26T09:14:11.340Z,1003.28
2022-11-26T09:15:11.352Z,1003.37
2022-11-26T09:16:43.296Z,1003.31
2022-11-26T09:17:11.318Z,1003.32
2022-11-26T09:18:11.311Z,1003.31
2022-11-26T09:19:11.291Z,1003.32
2022-11-26T09:20:11.301Z,1003.32
2022-11-26T09:21:11.265Z,1003.31
2022-11-26T09:22:11.308Z,1003.25
2022-11-26T09:23:11.252Z,1003.27
2022-11-26T09:24:11.256Z,1003.28
2022-11-26T09:25:12.310Z,1003.32
2022-11-26T09:26:11.219Z,1003.30
2022-11-26T09:27:11.216Z,1003.29
2022-11-26T09:28:11.203Z,1003.27
2022-11-26T09:29:12.207Z,1003.24
2022-11-26T09:30:11.183Z,1003.22
2022-11-26T09:31:11.188Z,1003.30
2022-11-26T09:32:31.155Z,1003.24
2022-11-26T09:33:13.149Z,1003.32
2022-11-26T09:34:11.131Z,1003.31
2022-11-26T09:35:11.142Z,1003.33
2022-11-26T09:36:11.121Z,1003.37
2022-11-26T09:37:11.119Z,1003.36
2022-11-26T09:38:11.126Z,1003.33
2022-11-26T09:39:11.096Z,1003.37
2022-11-26T09:40:11.079Z,1003.38
2022-11-26T09:41:11.082Z,1003.38
2022-11-26T09:42:11.079Z,1003.34
2022-11-26T09:43:11.081Z,1003.31
2022-11-26T09:44:11.029Z,1003.38
2022-11-26T09:45:12.039Z,1003.37
2022-11-26T09:46:11.099Z,1003.38
2022-11-26T09:47:12.828Z,1003.36
2022-11-26T09:48:12.024Z,1003.37
2022-11-26T09:49:10.999Z,1003.45
2022-11-26T09:50:11.010Z,1003.40
2022-11-26T09:51:10.989Z,1003.43
2022-11-26T09:52:10.999Z,1003.42
2022-11-26T09:53:10.965Z,1003.44
2022-11-26T09:54:11.012Z,1003.37
2022-11-26T09:55:11.005Z,1003.41
2022-11-26T09:56:10.940Z,1003.41
2022-11-26T09:57:10.910Z,1003.43
2022-11-26T09:58:10.905Z,1003.45
2022-11-26T09:59:10.909Z,1003.41
2022-11-26T10:00:10.895Z,1003.43
2022-11-26T10:01:10.949Z,1003.46
2022-11-26T10:02:10.909Z,1003.46
2022-11-26T10:03:10.871Z,1003.42
2022-11-26T10:04:10.860Z,1003.35
2022-11-26T10:05:10.869Z,1003.35
2022-11-26T10:06:10.851Z,1003.36
2022-11-26T10:07:10.850Z,1003.38
2022-11-26T10:08:10.827Z,1003.33
2022-11-26T10:09:10.808Z,1003.35
2022-11-26T10:10:10.807Z,1003.34
2022-11-26T10:11:10.788Z,1003.35
2022-11-26T10:12:24.452Z,1003.35
2022-11-26T10:13:19.108Z,1003.31
2022-11-26T10:14:12.760Z,1003.36
2022-11-26T10:15:10.760Z,1003.36
2022-11-26T10:16:10.808Z,1003.37
2022-11-26T10:17:10.721Z,1003.36
2022-11-26T10:18:10.714Z,1003.30
2022-11-26T10:19:10.711Z,1003.37
2022-11-26T10:20:10.695Z,1003.35
2022-11-26T10:21:10.705Z,1003.38
2022-11-26T10:22:10.676Z,1003.37
2022-11-26T10:23:10.648Z,1003.37
2022-11-26T10:24:10.649Z,1003.39
2022-11-26T10:25:10.683Z,1003.40
2022-11-26T10:26:10.640Z,1003.43
2022-11-26T10:27:11.635Z,1003.46
2022-11-26T10:28:10.631Z,1003.45
2022-11-26T10:29:10.608Z,1003.44
2022-11-26T10:30:10.609Z,1003.48
2022-11-26T10:31:10.679Z,1003.49
2022-11-26T10:32:10.599Z,1003.51
2022-11-26T10:33:10.554Z,1003.43
2022-11-26T10:34:10.544Z,1003.53
2022-11-26T10:35:10.543Z,1003.49
2022-11-26T10:36:10.539Z,1003.51
2022-11-26T10:37:10.539Z,1003.48
2022-11-26T10:38:10.526Z,1003.53
2022-11-26T10:39:10.515Z,1003.48
2022-11-26T10:40:10.500Z,1003.50
2022-11-26T10:41:10.486Z,1003.46
2022-11-26T10:42:10.475Z,1003.52
2022-11-26T10:43:10.492Z,1003.45
2022-11-26T10:44:10.467Z,1003.49
2022-11-26T10:45:12.309Z,1003.46
2022-11-26T10:46:11.448Z,1003.42
2022-11-26T10:47:10.444Z,1003.45
2022-11-26T10:48:10.440Z,1003.40
2022-11-26T10:49:10.424Z,1003.40
2022-11-26T10:50:31.815Z,1003.43
2022-11-26T10:51:12.416Z,1003.49
2022-11-26T10:52:10.380Z,1003.55
2022-11-26T10:53:10.413Z,1003.48
2022-11-26T10:54:10.354Z,1003.56
2022-11-26T10:55:10.350Z,1003.55
2022-11-26T10:56:10.350Z,1003.56
2022-11-26T10:57:10.329Z,1003.50
2022-11-26T10:58:10.351Z,1003.59
2022-11-26T10:59:10.302Z,1003.52
2022-11-26T11:00:10.317Z,1003.51
2022-11-26T11:01:10.406Z,1003.50
2022-11-26T11:02:10.332Z,1003.57
2022-11-26T11:03:10.264Z,1003.60
2022-11-26T11:04:10.311Z,1003.56
2022-11-26T11:05:10.251Z,1003.60
2022-11-26T11:06:10.240Z,1003.59
2022-11-26T11:07:12.074Z,1003.61
2022-11-26T11:08:10.221Z,1003.60
2022-11-26T11:09:10.205Z,1003.67
2022-11-26T11:10:10.198Z,1003.61
2022-11-26T11:11:10.212Z,1003.67
2022-11-26T11:12:10.176Z,1003.63
2022-11-26T11:13:10.179Z,1003.63
2022-11-26T11:14:10.157Z,1003.65
2022-11-26T11:15:10.165Z,1003.63
2022-11-26T11:16:10.191Z,1003.62
2022-11-26T11:17:10.160Z,1003.61
2022-11-26T11:18:10.114Z,1003.61
2022-11-26T11:19:10.122Z,1003.61
2022-11-26T11:20:10.089Z,1003.62
2022-11-26T11:21:10.080Z,1003.58
2022-11-26T11:22:10.096Z,1003.52
2022-11-26T11:23:10.063Z,1003.58
2022-11-26T11:24:10.076Z,1003.48
2022-11-26T11:25:10.094Z,1003.46
2022-11-26T11:26:10.040Z,1003.47
2022-11-26T11:27:10.035Z,1003.47
2022-11-26T11:28:12.359Z,1003.48
2022-11-26T11:29:11.008Z,1003.44
2022-11-26T11:30:09.992Z,1003.46
2022-11-26T11:31:10.003Z,1003.38
2022-11-26T11:32:09.984Z,1003.41
2022-11-26T11:33:09.987Z,1003.41
2022-11-26T11:34:09.971Z,1003.43
2022-11-26T11:35:09.945Z,1003.39
2022-11-26T11:36:09.941Z,1003.37
2022-11-26T11:37:14.415Z,1003.44
2022-11-26T11:38:10.913Z,1003.44
2022-11-26T11:39:09.897Z,1003.41
2022-11-26T11:40:13.024Z,1003.41
2022-11-26T11:41:10.868Z,1003.44
2022-11-26T11:42:09.859Z,1003.41
2022-11-26T11:43:09.870Z,1003.40
2022-11-26T11:44:09.843Z,1003.41
2022-11-26T11:45:09.837Z,1003.38
2022-11-26T11:46:10.006Z,1003.32
2022-11-26T11:47:09.833Z,1003.36
2022-11-26T11:48:09.803Z,1003.36
2022-11-26T11:49:09.799Z,1003.29
2022-11-26T11:50:09.786Z,1003.26
2022-11-26T11:51:09.779Z,1003.25
2022-11-26T11:52:09.782Z,1003.20
2022-11-26T11:53:09.752Z,1003.24
2022-11-26T11:54:09.758Z,1003.22
2022-11-26T11:55:09.741Z,1003.21
2022-11-26T11:56:09.764Z,1003.18
2022-11-26T11:57:09.715Z,1003.26
2022-11-26T11:58:09.726Z,1003.26
2022-11-26T11:59:09.693Z,1003.23
2022-11-26T12:00:09.692Z,1003.24
2022-11-26T12:01:09.678Z,1003.30
2022-11-26T12:02:09.687Z,1003.31
2022-11-26T12:03:10.698Z,1003.31
2022-11-26T12:04:15.053Z,1003.29
2022-11-26T12:05:11.738Z,1003.32
2022-11-26T12:06:09.629Z,1003.31
2022-11-26T12:07:09.637Z,1003.34
2022-11-26T12:08:09.603Z,1003.26
2022-11-26T12:09:10.612Z,1003.31
2022-11-26T12:10:09.593Z,1003.31
2022-11-26T12:11:09.581Z,1003.31
2022-11-26T12:12:09.569Z,1003.28
2022-11-26T12:13:09.566Z,1003.42
2022-11-26T12:14:09.569Z,1003.36